sensor_id;sensor_type;location;lat;lon;timestamp;P1;durP1;ratioP1;P2;durP2;ratioP2
52668;SDS011;59898;52.786;6.892;2023-09-30T00:02:48;15.07;;;6.57;;
52668;SDS011;59898;52.786;6.892;2023-09-30T00:06:10;15.35;;;7.07;;
52668;SDS011;59898;52.786;6.892;2023-09-30T00:09:30;17.52;;;5.80;;
52668;SDS011;59898;52.786;6.892;2023-09-30T00:12:51;15.90;;;7.13;;
52668;SDS011;59898;52.786;6.892;2023-09-30T00:16:12;12.00;;;5.70;;
52668;SDS011;59898;52.786;6.892;2023-09-30T00:19:32;9.68;;;5.13;;
52668;SDS011;59898;52.786;6.892;2023-09-30T00:22:53;15.07;;;6.47;;
52668;SDS011;59898;52.786;6.892;2023-09-30T00:26:14;16.60;;;6.05;;
52668;SDS011;59898;52.786;6.892;2023-09-30T00:29:34;21.48;;;6.20;;
52668;SDS011;59898;52.786;6.892;2023-09-30T00:32:55;14.95;;;6.30;;
52668;SDS011;59898;52.786;6.892;2023-09-30T00:36:16;11.85;;;5.28;;
52668;SDS011;59898;52.786;6.892;2023-09-30T00:39:36;15.73;;;6.22;;
52668;SDS011;59898;52.786;6.892;2023-09-30T00:42:57;12.38;;;5.22;;
52668;SDS011;59898;52.786;6.892;2023-09-30T00:46:29;12.82;;;6.13;;
52668;SDS011;59898;52.786;6.892;2023-09-30T00:49:51;10.93;;;5.60;;
52668;SDS011;59898;52.786;6.892;2023-09-30T00:53:13;12.83;;;5.87;;
52668;SDS011;59898;52.786;6.892;2023-09-30T00:56:34;14.27;;;6.45;;
52668;SDS011;59898;52.786;6.892;2023-09-30T01:00:01;14.32;;;6.43;;
52668;SDS011;59898;52.786;6.892;2023-09-30T01:03:23;17.73;;;5.47;;
52668;SDS011;59898;52.786;6.892;2023-09-30T01:06:43;16.67;;;6.93;;
52668;SDS011;59898;52.786;6.892;2023-09-30T01:10:04;15.43;;;6.68;;
52668;SDS011;59898;52.786;6.892;2023-09-30T01:13:31;14.18;;;6.28;;
52668;SDS011;59898;52.786;6.892;2023-09-30T01:16:55;16.15;;;5.50;;
52668;SDS011;59898;52.786;6.892;2023-09-30T01:20:17;24.10;;;6.63;;
52668;SDS011;59898;52.786;6.892;2023-09-30T01:23:39;12.90;;;5.70;;
52668;SDS011;59898;52.786;6.892;2023-09-30T01:27:00;24.35;;;7.28;;
52668;SDS011;59898;52.786;6.892;2023-09-30T01:30:21;18.77;;;8.05;;
52668;SDS011;59898;52.786;6.892;2023-09-30T01:33:43;13.73;;;6.43;;
52668;SDS011;59898;52.786;6.892;2023-09-30T01:37:04;14.32;;;6.35;;
52668;SDS011;59898;52.786;6.892;2023-09-30T01:40:24;13.52;;;5.85;;
52668;SDS011;59898;52.786;6.892;2023-09-30T01:43:45;14.23;;;6.78;;
52668;SDS011;59898;52.786;6.892;2023-09-30T01:47:07;17.13;;;6.60;;
52668;SDS011;59898;52.786;6.892;2023-09-30T01:50:27;13.25;;;5.20;;
52668;SDS011;59898;52.786;6.892;2023-09-30T01:53:48;19.73;;;6.75;;
52668;SDS011;59898;52.786;6.892;2023-09-30T01:57:08;15.07;;;6.07;;
52668;SDS011;59898;52.786;6.892;2023-09-30T02:00:29;12.93;;;5.60;;
52668;SDS011;59898;52.786;6.892;2023-09-30T02:03:50;15.80;;;5.18;;
52668;SDS011;59898;52.786;6.892;2023-09-30T02:07:11;19.20;;;5.53;;
52668;SDS011;59898;52.786;6.892;2023-09-30T02:10:32;17.30;;;6.15;;
52668;SDS011;59898;52.786;6.892;2023-09-30T02:13:55;11.15;;;5.93;;
52668;SDS011;59898;52.786;6.892;2023-09-30T02:17:16;12.38;;;5.60;;
52668;SDS011;59898;52.786;6.892;2023-09-30T02:20:37;15.02;;;5.95;;
52668;SDS011;59898;52.786;6.892;2023-09-30T02:24:00;18.48;;;6.07;;
52668;SDS011;59898;52.786;6.892;2023-09-30T02:27:22;15.15;;;5.85;;
52668;SDS011;59898;52.786;6.892;2023-09-30T02:30:43;13.88;;;5.28;;
52668;SDS011;59898;52.786;6.892;2023-09-30T02:34:03;14.98;;;5.95;;
52668;SDS011;59898;52.786;6.892;2023-09-30T02:37:24;9.65;;;5.90;;
52668;SDS011;59898;52.786;6.892;2023-09-30T02:40:45;15.02;;;5.63;;
52668;SDS011;59898;52.786;6.892;2023-09-30T02:44:08;11.23;;;5.55;;
52668;SDS011;59898;52.786;6.892;2023-09-30T02:47:29;13.93;;;5.55;;
52668;SDS011;59898;52.786;6.892;2023-09-30T02:50:49;11.95;;;6.10;;
52668;SDS011;59898;52.786;6.892;2023-09-30T02:54:10;15.27;;;6.40;;
52668;SDS011;59898;52.786;6.892;2023-09-30T02:57:35;18.23;;;6.20;;
52668;SDS011;59898;52.786;6.892;2023-09-30T03:00:56;19.17;;;6.78;;
52668;SDS011;59898;52.786;6.892;2023-09-30T03:04:16;17.15;;;6.40;;
52668;SDS011;59898;52.786;6.892;2023-09-30T03:07:39;11.65;;;6.28;;
52668;SDS011;59898;52.786;6.892;2023-09-30T03:11:01;20.73;;;8.38;;
52668;SDS011;59898;52.786;6.892;2023-09-30T03:14:22;14.55;;;8.13;;
52668;SDS011;59898;52.786;6.892;2023-09-30T03:17:43;14.50;;;7.18;;
52668;SDS011;59898;52.786;6.892;2023-09-30T03:21:12;19.42;;;6.25;;
52668;SDS011;59898;52.786;6.892;2023-09-30T03:24:33;14.02;;;6.45;;
52668;SDS011;59898;52.786;6.892;2023-09-30T03:27:55;16.65;;;8.25;;
52668;SDS011;59898;52.786;6.892;2023-09-30T03:31:20;15.20;;;6.90;;
52668;SDS011;59898;52.786;6.892;2023-09-30T03:34:40;13.20;;;6.18;;
52668;SDS011;59898;52.786;6.892;2023-09-30T03:38:04;9.05;;;5.35;;
52668;SDS011;59898;52.786;6.892;2023-09-30T03:41:26;16.77;;;6.95;;
52668;SDS011;59898;52.786;6.892;2023-09-30T03:44:48;16.80;;;6.80;;
52668;SDS011;59898;52.786;6.892;2023-09-30T03:48:09;13.80;;;6.47;;
52668;SDS011;59898;52.786;6.892;2023-09-30T03:51:30;17.63;;;7.10;;
52668;SDS011;59898;52.786;6.892;2023-09-30T03:54:50;9.18;;;6.72;;
52668;SDS011;59898;52.786;6.892;2023-09-30T03:58:12;28.52;;;8.20;;
52668;SDS011;59898;52.786;6.892;2023-09-30T04:01:33;12.52;;;6.82;;
52668;SDS011;59898;52.786;6.892;2023-09-30T04:04:54;13.98;;;8.70;;
52668;SDS011;59898;52.786;6.892;2023-09-30T04:08:16;16.40;;;6.55;;
52668;SDS011;59898;52.786;6.892;2023-09-30T04:11:37;22.92;;;7.80;;
52668;SDS011;59898;52.786;6.892;2023-09-30T04:14:58;15.25;;;7.10;;
52668;SDS011;59898;52.786;6.892;2023-09-30T04:18:19;13.63;;;6.60;;
52668;SDS011;59898;52.786;6.892;2023-09-30T04:21:42;17.77;;;7.75;;
52668;SDS011;59898;52.786;6.892;2023-09-30T04:25:03;17.17;;;7.38;;
52668;SDS011;59898;52.786;6.892;2023-09-30T04:28:30;15.13;;;6.60;;
52668;SDS011;59898;52.786;6.892;2023-09-30T04:31:51;16.10;;;7.93;;
52668;SDS011;59898;52.786;6.892;2023-09-30T04:35:12;16.92;;;7.63;;
52668;SDS011;59898;52.786;6.892;2023-09-30T04:38:33;15.02;;;7.28;;
52668;SDS011;59898;52.786;6.892;2023-09-30T04:41:53;15.20;;;7.35;;
52668;SDS011;59898;52.786;6.892;2023-09-30T04:45:15;14.10;;;7.35;;
52668;SDS011;59898;52.786;6.892;2023-09-30T04:48:44;14.30;;;7.82;;
52668;SDS011;59898;52.786;6.892;2023-09-30T04:52:08;14.38;;;8.25;;
52668;SDS011;59898;52.786;6.892;2023-09-30T04:55:29;12.60;;;7.30;;
52668;SDS011;59898;52.786;6.892;2023-09-30T04:58:50;14.38;;;7.03;;
52668;SDS011;59898;52.786;6.892;2023-09-30T05:02:10;15.23;;;7.00;;
52668;SDS011;59898;52.786;6.892;2023-09-30T05:05:31;16.48;;;7.13;;
52668;SDS011;59898;52.786;6.892;2023-09-30T05:08:51;13.45;;;7.45;;
52668;SDS011;59898;52.786;6.892;2023-09-30T05:12:12;14.98;;;7.45;;
52668;SDS011;59898;52.786;6.892;2023-09-30T05:15:32;15.23;;;7.90;;
52668;SDS011;59898;52.786;6.892;2023-09-30T05:18:55;15.88;;;9.30;;
52668;SDS011;59898;52.786;6.892;2023-09-30T05:22:16;15.52;;;7.60;;
52668;SDS011;59898;52.786;6.892;2023-09-30T05:25:39;12.82;;;7.15;;
52668;SDS011;59898;52.786;6.892;2023-09-30T05:28:59;12.52;;;7.85;;
52668;SDS011;59898;52.786;6.892;2023-09-30T05:32:21;14.73;;;7.05;;
52668;SDS011;59898;52.786;6.892;2023-09-30T05:35:42;13.80;;;7.82;;
52668;SDS011;59898;52.786;6.892;2023-09-30T05:39:03;15.52;;;8.20;;
52668;SDS011;59898;52.786;6.892;2023-09-30T05:42:24;14.82;;;7.22;;
52668;SDS011;59898;52.786;6.892;2023-09-30T05:45:45;19.17;;;8.43;;
52668;SDS011;59898;52.786;6.892;2023-09-30T05:49:09;16.48;;;7.10;;
52668;SDS011;59898;52.786;6.892;2023-09-30T05:52:33;14.93;;;7.18;;
52668;SDS011;59898;52.786;6.892;2023-09-30T05:55:54;17.20;;;7.30;;
52668;SDS011;59898;52.786;6.892;2023-09-30T05:59:14;19.33;;;8.20;;
52668;SDS011;59898;52.786;6.892;2023-09-30T06:02:35;15.02;;;7.85;;
52668;SDS011;59898;52.786;6.892;2023-09-30T06:05:56;13.38;;;8.20;;
52668;SDS011;59898;52.786;6.892;2023-09-30T06:09:16;17.08;;;8.23;;
52668;SDS011;59898;52.786;6.892;2023-09-30T06:12:37;21.48;;;7.82;;
52668;SDS011;59898;52.786;6.892;2023-09-30T06:15:58;19.33;;;10.02;;
52668;SDS011;59898;52.786;6.892;2023-09-30T06:19:18;12.82;;;8.07;;
52668;SDS011;59898;52.786;6.892;2023-09-30T06:22:39;11.82;;;7.88;;
52668;SDS011;59898;52.786;6.892;2023-09-30T06:26:00;11.93;;;7.38;;
52668;SDS011;59898;52.786;6.892;2023-09-30T06:29:22;12.73;;;7.53;;
52668;SDS011;59898;52.786;6.892;2023-09-30T06:32:43;14.63;;;7.65;;
52668;SDS011;59898;52.786;6.892;2023-09-30T06:36:08;12.52;;;8.30;;
52668;SDS011;59898;52.786;6.892;2023-09-30T06:39:29;15.27;;;8.75;;
52668;SDS011;59898;52.786;6.892;2023-09-30T06:42:50;12.32;;;7.30;;
52668;SDS011;59898;52.786;6.892;2023-09-30T06:46:12;15.70;;;8.75;;
52668;SDS011;59898;52.786;6.892;2023-09-30T06:49:35;12.25;;;7.65;;
52668;SDS011;59898;52.786;6.892;2023-09-30T06:52:56;16.58;;;8.18;;
52668;SDS011;59898;52.786;6.892;2023-09-30T06:56:17;21.55;;;10.00;;
52668;SDS011;59898;52.786;6.892;2023-09-30T06:59:38;17.48;;;9.63;;
52668;SDS011;59898;52.786;6.892;2023-09-30T07:02:58;21.17;;;9.23;;
52668;SDS011;59898;52.786;6.892;2023-09-30T07:06:25;15.45;;;8.35;;
52668;SDS011;59898;52.786;6.892;2023-09-30T07:09:46;13.48;;;8.82;;
52668;SDS011;59898;52.786;6.892;2023-09-30T07:13:07;16.85;;;8.27;;
52668;SDS011;59898;52.786;6.892;2023-09-30T07:16:28;14.80;;;8.32;;
52668;SDS011;59898;52.786;6.892;2023-09-30T07:19:49;15.23;;;8.07;;
52668;SDS011;59898;52.786;6.892;2023-09-30T07:23:10;18.15;;;9.05;;
52668;SDS011;59898;52.786;6.892;2023-09-30T07:26:33;16.15;;;8.68;;
52668;SDS011;59898;52.786;6.892;2023-09-30T07:29:53;17.17;;;8.48;;
52668;SDS011;59898;52.786;6.892;2023-09-30T07:33:14;15.68;;;9.18;;
52668;SDS011;59898;52.786;6.892;2023-09-30T07:36:34;16.20;;;8.18;;
52668;SDS011;59898;52.786;6.892;2023-09-30T07:39:55;15.40;;;9.30;;
52668;SDS011;59898;52.786;6.892;2023-09-30T07:43:15;17.35;;;8.70;;
52668;SDS011;59898;52.786;6.892;2023-09-30T07:46:37;13.30;;;8.57;;
52668;SDS011;59898;52.786;6.892;2023-09-30T07:49:58;13.63;;;7.72;;
52668;SDS011;59898;52.786;6.892;2023-09-30T07:53:18;13.50;;;7.38;;
52668;SDS011;59898;52.786;6.892;2023-09-30T07:56:39;12.98;;;7.97;;
52668;SDS011;59898;52.786;6.892;2023-09-30T07:59:59;12.02;;;7.82;;
52668;SDS011;59898;52.786;6.892;2023-09-30T08:03:20;10.65;;;6.13;;
52668;SDS011;59898;52.786;6.892;2023-09-30T08:06:41;16.65;;;8.20;;
52668;SDS011;59898;52.786;6.892;2023-09-30T08:10:02;12.90;;;6.95;;
52668;SDS011;59898;52.786;6.892;2023-09-30T08:13:26;10.23;;;8.00;;
52668;SDS011;59898;52.786;6.892;2023-09-30T08:16:49;13.52;;;7.60;;
52668;SDS011;59898;52.786;6.892;2023-09-30T08:20:09;12.90;;;8.43;;
52668;SDS011;59898;52.786;6.892;2023-09-30T08:23:31;15.20;;;7.82;;
52668;SDS011;59898;52.786;6.892;2023-09-30T08:26:51;11.98;;;8.70;;
52668;SDS011;59898;52.786;6.892;2023-09-30T08:30:12;13.13;;;7.63;;
52668;SDS011;59898;52.786;6.892;2023-09-30T08:33:32;13.23;;;8.40;;
52668;SDS011;59898;52.786;6.892;2023-09-30T08:36:53;12.77;;;8.55;;
52668;SDS011;59898;52.786;6.892;2023-09-30T08:40:14;13.43;;;8.00;;
52668;SDS011;59898;52.786;6.892;2023-09-30T08:43:39;15.40;;;8.75;;
52668;SDS011;59898;52.786;6.892;2023-09-30T08:47:00;11.68;;;7.88;;
52668;SDS011;59898;52.786;6.892;2023-09-30T08:50:21;17.55;;;8.55;;
52668;SDS011;59898;52.786;6.892;2023-09-30T08:53:42;14.88;;;8.57;;
52668;SDS011;59898;52.786;6.892;2023-09-30T08:57:04;14.77;;;7.97;;
52668;SDS011;59898;52.786;6.892;2023-09-30T09:00:25;11.85;;;8.13;;
52668;SDS011;59898;52.786;6.892;2023-09-30T09:03:46;14.98;;;9.77;;
52668;SDS011;59898;52.786;6.892;2023-09-30T09:07:12;13.70;;;8.23;;
52668;SDS011;59898;52.786;6.892;2023-09-30T09:10:33;14.85;;;7.78;;
52668;SDS011;59898;52.786;6.892;2023-09-30T09:13:53;12.65;;;7.57;;
52668;SDS011;59898;52.786;6.892;2023-09-30T09:17:20;18.83;;;7.45;;
52668;SDS011;59898;52.786;6.892;2023-09-30T09:20:42;13.73;;;8.50;;
52668;SDS011;59898;52.786;6.892;2023-09-30T09:24:03;13.98;;;7.00;;
52668;SDS011;59898;52.786;6.892;2023-09-30T09:27:23;10.57;;;7.20;;
52668;SDS011;59898;52.786;6.892;2023-09-30T09:30:44;12.18;;;7.72;;
52668;SDS011;59898;52.786;6.892;2023-09-30T09:34:12;16.75;;;6.85;;
52668;SDS011;59898;52.786;6.892;2023-09-30T09:37:34;11.23;;;6.30;;
52668;SDS011;59898;52.786;6.892;2023-09-30T09:40:58;11.65;;;6.78;;
52668;SDS011;59898;52.786;6.892;2023-09-30T09:44:19;9.90;;;6.38;;
52668;SDS011;59898;52.786;6.892;2023-09-30T09:47:47;12.15;;;5.65;;
52668;SDS011;59898;52.786;6.892;2023-09-30T09:51:08;13.98;;;7.35;;
52668;SDS011;59898;52.786;6.892;2023-09-30T09:54:30;10.85;;;5.75;;
52668;SDS011;59898;52.786;6.892;2023-09-30T09:57:52;14.93;;;7.78;;
52668;SDS011;59898;52.786;6.892;2023-09-30T10:01:14;10.77;;;6.93;;
52668;SDS011;59898;52.786;6.892;2023-09-30T10:04:35;14.48;;;6.45;;
52668;SDS011;59898;52.786;6.892;2023-09-30T10:11:21;8.82;;;6.35;;
52668;SDS011;59898;52.786;6.892;2023-09-30T10:14:43;11.88;;;5.78;;
52668;SDS011;59898;52.786;6.892;2023-09-30T10:18:07;15.23;;;5.90;;
52668;SDS011;59898;52.786;6.892;2023-09-30T10:21:32;15.40;;;7.53;;
52668;SDS011;59898;52.786;6.892;2023-09-30T10:24:57;11.73;;;7.25;;
52668;SDS011;59898;52.786;6.892;2023-09-30T10:28:34;13.82;;;6.75;;
52668;SDS011;59898;52.786;6.892;2023-09-30T10:31:56;12.95;;;6.43;;
52668;SDS011;59898;52.786;6.892;2023-09-30T10:35:17;14.73;;;7.85;;
52668;SDS011;59898;52.786;6.892;2023-09-30T10:38:38;10.50;;;6.50;;
52668;SDS011;59898;52.786;6.892;2023-09-30T10:42:00;16.25;;;6.75;;
52668;SDS011;59898;52.786;6.892;2023-09-30T10:49:16;12.60;;;6.47;;
52668;SDS011;59898;52.786;6.892;2023-09-30T10:52:37;15.77;;;6.55;;
52668;SDS011;59898;52.786;6.892;2023-09-30T10:55:59;13.38;;;8.02;;
52668;SDS011;59898;52.786;6.892;2023-09-30T10:59:23;10.95;;;5.65;;
52668;SDS011;59898;52.786;6.892;2023-09-30T11:02:50;9.10;;;5.40;;
52668;SDS011;59898;52.786;6.892;2023-09-30T11:06:12;13.05;;;6.32;;
52668;SDS011;59898;52.786;6.892;2023-09-30T11:09:37;9.13;;;4.88;;
52668;SDS011;59898;52.786;6.892;2023-09-30T11:12:59;8.75;;;5.13;;
52668;SDS011;59898;52.786;6.892;2023-09-30T11:16:20;12.93;;;4.97;;
52668;SDS011;59898;52.786;6.892;2023-09-30T11:19:48;9.63;;;4.20;;
52668;SDS011;59898;52.786;6.892;2023-09-30T11:23:08;9.40;;;4.97;;
52668;SDS011;59898;52.786;6.892;2023-09-30T11:26:30;13.10;;;5.45;;
52668;SDS011;59898;52.786;6.892;2023-09-30T11:29:54;11.55;;;4.97;;
52668;SDS011;59898;52.786;6.892;2023-09-30T11:33:14;10.27;;;4.45;;
52668;SDS011;59898;52.786;6.892;2023-09-30T11:36:36;7.85;;;3.83;;
52668;SDS011;59898;52.786;6.892;2023-09-30T11:40:11;5.82;;;4.22;;
52668;SDS011;59898;52.786;6.892;2023-09-30T11:43:36;10.18;;;3.92;;
52668;SDS011;59898;52.786;6.892;2023-09-30T11:46:57;6.45;;;3.22;;
52668;SDS011;59898;52.786;6.892;2023-09-30T11:50:25;8.48;;;4.88;;
52668;SDS011;59898;52.786;6.892;2023-09-30T11:53:46;9.65;;;5.10;;
52668;SDS011;59898;52.786;6.892;2023-09-30T12:00:30;5.40;;;3.00;;
52668;SDS011;59898;52.786;6.892;2023-09-30T12:03:51;10.05;;;3.38;;
52668;SDS011;59898;52.786;6.892;2023-09-30T12:07:13;9.15;;;2.80;;
52668;SDS011;59898;52.786;6.892;2023-09-30T12:10:33;8.10;;;3.15;;
52668;SDS011;59898;52.786;6.892;2023-09-30T12:13:54;5.32;;;2.47;;
52668;SDS011;59898;52.786;6.892;2023-09-30T12:17:15;5.43;;;3.65;;
52668;SDS011;59898;52.786;6.892;2023-09-30T12:20:36;7.85;;;3.67;;
52668;SDS011;59898;52.786;6.892;2023-09-30T12:23:57;7.25;;;2.97;;
52668;SDS011;59898;52.786;6.892;2023-09-30T12:27:19;5.37;;;3.00;;
52668;SDS011;59898;52.786;6.892;2023-09-30T12:30:39;5.57;;;2.70;;
52668;SDS011;59898;52.786;6.892;2023-09-30T12:34:00;8.30;;;2.67;;
52668;SDS011;59898;52.786;6.892;2023-09-30T12:37:22;7.53;;;3.77;;
52668;SDS011;59898;52.786;6.892;2023-09-30T12:40:42;6.70;;;2.78;;
52668;SDS011;59898;52.786;6.892;2023-09-30T12:44:03;6.95;;;2.90;;
52668;SDS011;59898;52.786;6.892;2023-09-30T12:47:24;8.30;;;3.33;;
52668;SDS011;59898;52.786;6.892;2023-09-30T12:50:44;10.30;;;3.10;;
52668;SDS011;59898;52.786;6.892;2023-09-30T12:54:05;5.30;;;3.20;;
52668;SDS011;59898;52.786;6.892;2023-09-30T12:57:26;7.15;;;3.13;;
52668;SDS011;59898;52.786;6.892;2023-09-30T13:00:46;6.03;;;3.08;;
52668;SDS011;59898;52.786;6.892;2023-09-30T13:04:07;5.97;;;3.13;;
52668;SDS011;59898;52.786;6.892;2023-09-30T13:07:28;6.15;;;2.40;;
52668;SDS011;59898;52.786;6.892;2023-09-30T13:10:48;9.35;;;2.92;;
52668;SDS011;59898;52.786;6.892;2023-09-30T13:14:10;9.10;;;3.70;;
52668;SDS011;59898;52.786;6.892;2023-09-30T13:17:31;6.05;;;2.55;;
52668;SDS011;59898;52.786;6.892;2023-09-30T13:20:51;8.90;;;3.03;;
52668;SDS011;59898;52.786;6.892;2023-09-30T13:24:12;10.32;;;3.00;;
52668;SDS011;59898;52.786;6.892;2023-09-30T13:27:34;9.93;;;3.40;;
52668;SDS011;59898;52.786;6.892;2023-09-30T13:30:55;10.43;;;3.88;;
52668;SDS011;59898;52.786;6.892;2023-09-30T13:34:15;6.22;;;2.72;;
52668;SDS011;59898;52.786;6.892;2023-09-30T13:37:36;8.40;;;4.28;;
52668;SDS011;59898;52.786;6.892;2023-09-30T13:40:57;7.65;;;3.42;;
52668;SDS011;59898;52.786;6.892;2023-09-30T13:44:17;6.38;;;2.92;;
52668;SDS011;59898;52.786;6.892;2023-09-30T13:47:38;4.60;;;2.60;;
52668;SDS011;59898;52.786;6.892;2023-09-30T13:51:06;7.05;;;2.65;;
52668;SDS011;59898;52.786;6.892;2023-09-30T13:54:28;4.35;;;3.15;;
52668;SDS011;59898;52.786;6.892;2023-09-30T13:57:48;10.13;;;3.25;;
52668;SDS011;59898;52.786;6.892;2023-09-30T14:01:09;5.05;;;2.35;;
52668;SDS011;59898;52.786;6.892;2023-09-30T14:04:31;6.32;;;2.45;;
52668;SDS011;59898;52.786;6.892;2023-09-30T14:07:57;5.50;;;2.65;;
52668;SDS011;59898;52.786;6.892;2023-09-30T14:11:18;6.22;;;2.78;;
52668;SDS011;59898;52.786;6.892;2023-09-30T14:14:39;6.55;;;2.95;;
52668;SDS011;59898;52.786;6.892;2023-09-30T14:17:59;8.48;;;2.53;;
52668;SDS011;59898;52.786;6.892;2023-09-30T14:21:22;5.53;;;2.50;;
52668;SDS011;59898;52.786;6.892;2023-09-30T14:24:42;7.72;;;2.97;;
52668;SDS011;59898;52.786;6.892;2023-09-30T14:28:03;12.23;;;2.75;;
52668;SDS011;59898;52.786;6.892;2023-09-30T14:31:23;4.80;;;2.30;;
52668;SDS011;59898;52.786;6.892;2023-09-30T14:34:44;7.18;;;2.40;;
52668;SDS011;59898;52.786;6.892;2023-09-30T14:38:05;4.18;;;2.45;;
52668;SDS011;59898;52.786;6.892;2023-09-30T14:41:25;5.03;;;2.50;;
52668;SDS011;59898;52.786;6.892;2023-09-30T14:44:46;6.80;;;3.78;;
52668;SDS011;59898;52.786;6.892;2023-09-30T14:48:07;5.32;;;2.95;;
52668;SDS011;59898;52.786;6.892;2023-09-30T14:51:29;6.22;;;2.35;;
52668;SDS011;59898;52.786;6.892;2023-09-30T14:54:52;6.75;;;2.72;;
52668;SDS011;59898;52.786;6.892;2023-09-30T14:58:13;5.68;;;2.67;;
52668;SDS011;59898;52.786;6.892;2023-09-30T15:01:34;5.28;;;2.40;;
52668;SDS011;59898;52.786;6.892;2023-09-30T15:04:54;5.25;;;2.72;;
52668;SDS011;59898;52.786;6.892;2023-09-30T15:08:15;9.15;;;2.88;;
52668;SDS011;59898;52.786;6.892;2023-09-30T15:11:37;4.97;;;2.50;;
52668;SDS011;59898;52.786;6.892;2023-09-30T15:14:58;6.35;;;2.70;;
52668;SDS011;59898;52.786;6.892;2023-09-30T15:18:18;7.32;;;2.95;;
52668;SDS011;59898;52.786;6.892;2023-09-30T15:21:39;8.25;;;3.10;;
52668;SDS011;59898;52.786;6.892;2023-09-30T15:25:00;16.17;;;5.82;;
52668;SDS011;59898;52.786;6.892;2023-09-30T15:28:21;7.50;;;3.45;;
52668;SDS011;59898;52.786;6.892;2023-09-30T15:31:41;5.60;;;2.67;;
52668;SDS011;59898;52.786;6.892;2023-09-30T15:35:02;5.93;;;2.67;;
52668;SDS011;59898;52.786;6.892;2023-09-30T15:38:24;8.90;;;3.53;;
52668;SDS011;59898;52.786;6.892;2023-09-30T15:41:45;9.48;;;3.42;;
52668;SDS011;59898;52.786;6.892;2023-09-30T15:45:06;8.50;;;2.95;;
52668;SDS011;59898;52.786;6.892;2023-09-30T15:48:27;8.82;;;3.65;;
52668;SDS011;59898;52.786;6.892;2023-09-30T15:51:48;7.75;;;2.70;;
52668;SDS011;59898;52.786;6.892;2023-09-30T15:55:08;5.03;;;3.22;;
52668;SDS011;59898;52.786;6.892;2023-09-30T15:58:29;5.35;;;2.63;;
52668;SDS011;59898;52.786;6.892;2023-09-30T16:01:50;9.98;;;3.15;;
52668;SDS011;59898;52.786;6.892;2023-09-30T16:05:11;7.13;;;3.22;;
52668;SDS011;59898;52.786;6.892;2023-09-30T16:08:32;7.50;;;2.85;;
52668;SDS011;59898;52.786;6.892;2023-09-30T16:11:52;9.07;;;2.90;;
52668;SDS011;59898;52.786;6.892;2023-09-30T16:15:13;5.43;;;2.40;;
52668;SDS011;59898;52.786;6.892;2023-09-30T16:18:33;7.75;;;3.42;;
52668;SDS011;59898;52.786;6.892;2023-09-30T16:21:54;9.60;;;3.13;;
52668;SDS011;59898;52.786;6.892;2023-09-30T16:25:14;9.55;;;3.70;;
52668;SDS011;59898;52.786;6.892;2023-09-30T16:28:35;9.10;;;2.95;;
52668;SDS011;59898;52.786;6.892;2023-09-30T16:31:56;9.27;;;3.45;;
52668;SDS011;59898;52.786;6.892;2023-09-30T16:35:17;9.07;;;3.40;;
52668;SDS011;59898;52.786;6.892;2023-09-30T16:38:37;9.57;;;3.33;;
52668;SDS011;59898;52.786;6.892;2023-09-30T16:41:58;7.75;;;2.97;;
52668;SDS011;59898;52.786;6.892;2023-09-30T16:45:18;8.20;;;3.22;;
52668;SDS011;59898;52.786;6.892;2023-09-30T16:48:39;8.82;;;3.00;;
52668;SDS011;59898;52.786;6.892;2023-09-30T16:51:59;12.23;;;3.80;;
52668;SDS011;59898;52.786;6.892;2023-09-30T16:55:20;5.28;;;3.55;;
52668;SDS011;59898;52.786;6.892;2023-09-30T16:58:41;20.45;;;12.68;;
52668;SDS011;59898;52.786;6.892;2023-09-30T17:02:02;7.72;;;3.60;;
52668;SDS011;59898;52.786;6.892;2023-09-30T17:05:24;7.18;;;3.00;;
52668;SDS011;59898;52.786;6.892;2023-09-30T17:08:44;6.28;;;3.50;;
52668;SDS011;59898;52.786;6.892;2023-09-30T17:12:05;7.75;;;3.03;;
52668;SDS011;59898;52.786;6.892;2023-09-30T17:15:26;5.78;;;2.58;;
52668;SDS011;59898;52.786;6.892;2023-09-30T17:18:47;9.70;;;3.20;;
52668;SDS011;59898;52.786;6.892;2023-09-30T17:22:08;6.32;;;3.15;;
52668;SDS011;59898;52.786;6.892;2023-09-30T17:25:30;5.95;;;3.05;;
52668;SDS011;59898;52.786;6.892;2023-09-30T17:28:51;5.78;;;3.25;;
52668;SDS011;59898;52.786;6.892;2023-09-30T17:32:11;5.93;;;3.10;;
52668;SDS011;59898;52.786;6.892;2023-09-30T17:35:38;9.77;;;3.15;;
52668;SDS011;59898;52.786;6.892;2023-09-30T17:38:59;7.90;;;3.47;;
52668;SDS011;59898;52.786;6.892;2023-09-30T17:42:21;8.98;;;3.63;;
52668;SDS011;59898;52.786;6.892;2023-09-30T17:45:42;10.07;;;3.55;;
52668;SDS011;59898;52.786;6.892;2023-09-30T17:49:02;9.32;;;3.33;;
52668;SDS011;59898;52.786;6.892;2023-09-30T17:52:23;6.25;;;3.55;;
52668;SDS011;59898;52.786;6.892;2023-09-30T17:55:44;9.00;;;4.72;;
52668;SDS011;59898;52.786;6.892;2023-09-30T17:59:04;9.68;;;4.45;;
52668;SDS011;59898;52.786;6.892;2023-09-30T18:02:25;10.23;;;3.90;;
52668;SDS011;59898;52.786;6.892;2023-09-30T18:05:46;7.75;;;3.50;;
52668;SDS011;59898;52.786;6.892;2023-09-30T18:09:06;5.70;;;3.80;;
52668;SDS011;59898;52.786;6.892;2023-09-30T18:12:30;13.00;;;4.10;;
52668;SDS011;59898;52.786;6.892;2023-09-30T18:15:51;11.23;;;4.40;;
52668;SDS011;59898;52.786;6.892;2023-09-30T18:19:11;9.07;;;4.05;;
52668;SDS011;59898;52.786;6.892;2023-09-30T18:22:32;12.10;;;5.18;;
52668;SDS011;59898;52.786;6.892;2023-09-30T18:25:57;9.30;;;4.13;;
52668;SDS011;59898;52.786;6.892;2023-09-30T18:29:17;9.88;;;5.25;;
52668;SDS011;59898;52.786;6.892;2023-09-30T18:32:38;10.27;;;5.47;;
52668;SDS011;59898;52.786;6.892;2023-09-30T18:35:58;11.45;;;5.50;;
52668;SDS011;59898;52.786;6.892;2023-09-30T18:39:19;16.02;;;5.93;;
52668;SDS011;59898;52.786;6.892;2023-09-30T18:42:39;11.05;;;5.45;;
52668;SDS011;59898;52.786;6.892;2023-09-30T18:46:00;12.52;;;5.30;;
52668;SDS011;59898;52.786;6.892;2023-09-30T18:49:29;8.68;;;5.20;;
52668;SDS011;59898;52.786;6.892;2023-09-30T18:52:49;10.30;;;5.97;;
52668;SDS011;59898;52.786;6.892;2023-09-30T18:56:14;11.85;;;5.28;;
52668;SDS011;59898;52.786;6.892;2023-09-30T18:59:39;12.57;;;6.35;;
52668;SDS011;59898;52.786;6.892;2023-09-30T19:03:00;10.88;;;6.15;;
52668;SDS011;59898;52.786;6.892;2023-09-30T19:06:20;12.13;;;6.07;;
52668;SDS011;59898;52.786;6.892;2023-09-30T19:09:41;12.25;;;6.70;;
52668;SDS011;59898;52.786;6.892;2023-09-30T19:13:02;12.93;;;6.35;;
52668;SDS011;59898;52.786;6.892;2023-09-30T19:16:23;10.73;;;5.93;;
52668;SDS011;59898;52.786;6.892;2023-09-30T19:19:44;12.05;;;6.65;;
52668;SDS011;59898;52.786;6.892;2023-09-30T19:23:04;14.18;;;6.35;;
52668;SDS011;59898;52.786;6.892;2023-09-30T19:26:25;13.73;;;7.47;;
52668;SDS011;59898;52.786;6.892;2023-09-30T19:29:46;15.40;;;6.65;;
52668;SDS011;59898;52.786;6.892;2023-09-30T19:33:06;11.70;;;6.82;;
52668;SDS011;59898;52.786;6.892;2023-09-30T19:36:28;17.33;;;6.82;;
52668;SDS011;59898;52.786;6.892;2023-09-30T19:39:48;14.55;;;7.38;;
52668;SDS011;59898;52.786;6.892;2023-09-30T19:43:09;15.57;;;8.65;;
52668;SDS011;59898;52.786;6.892;2023-09-30T19:46:31;14.63;;;8.25;;
52668;SDS011;59898;52.786;6.892;2023-09-30T19:49:51;16.98;;;8.02;;
52668;SDS011;59898;52.786;6.892;2023-09-30T19:53:14;15.30;;;8.85;;
52668;SDS011;59898;52.786;6.892;2023-09-30T20:00:01;14.48;;;8.13;;
52668;SDS011;59898;52.786;6.892;2023-09-30T20:03:25;13.40;;;8.57;;
52668;SDS011;59898;52.786;6.892;2023-09-30T20:06:45;12.70;;;8.52;;
52668;SDS011;59898;52.786;6.892;2023-09-30T20:10:10;12.95;;;8.20;;
52668;SDS011;59898;52.786;6.892;2023-09-30T20:13:30;16.35;;;9.93;;
52668;SDS011;59898;52.786;6.892;2023-09-30T20:16:51;16.13;;;9.80;;